Time;durP1;ratioP1;P1;durP2;ratioP2;P2;SDS_P1;SDS_P2;PMS_P1;PMS_P2;Temp;Humidity;BMP_temperature;BMP_pressure;BME280_temperature;BME280_humidity;BME280_pressure;Samples;Min_cycle;Max_cycle;Signal;HPM_P1;HPM_P2
2022/04/10 00:01:00;;;;;;;7.93;1.83;;;2.10;99.90;;;;;;4994366;28;20391;-90
2022/04/10 00:03:26;;;;;;;8.45;2.20;;;2.10;99.90;;;;;;4993208;28;20411;-91
2022/04/10 00:05:52;;;;;;;10.55;2.25;;;2.20;99.90;;;;;;4989738;28;20026;-91
2022/04/10 00:08:18;;;;;;;12.40;2.33;;;2.20;99.90;;;;;;4993565;28;20026;-90
2022/04/10 00:10:44;;;;;;;11.32;2.70;;;2.20;99.90;;;;;;4993070;28;20042;-91
2022/04/10 00:13:10;;;;;;;9.15;2.22;;;2.10;99.90;;;;;;4992892;28;20045;-90
2022/04/10 00:15:35;;;;;;;13.98;2.30;;;2.00;99.90;;;;;;4990635;28;20022;-90
2022/04/10 00:18:01;;;;;;;8.10;2.42;;;2.00;99.90;;;;;;4994134;28;20184;-90
2022/04/10 00:20:27;;;;;;;10.93;2.75;;;2.00;99.90;;;;;;4988682;28;20391;-90
2022/04/10 00:22:53;;;;;;;10.45;1.88;;;1.90;99.90;;;;;;4986780;28;20434;-90
2022/04/10 00:25:20;;;;;;;17.92;2.72;;;1.80;99.90;;;;;;4993244;28;20026;-90
2022/04/10 00:27:46;;;;;;;11.50;2.65;;;1.70;99.90;;;;;;4999580;28;20026;-89
2022/04/10 00:30:14;;;;;;;13.77;3.20;;;1.70;99.90;;;;;;4995196;28;20021;-90
2022/04/10 00:32:40;;;;;;;10.23;2.28;;;1.60;99.90;;;;;;4991232;28;20030;-90
2022/04/10 00:35:07;;;;;;;10.10;2.85;;;1.50;99.90;;;;;;4992054;28;20113;-90
2022/04/10 00:37:36;;;;;;;11.05;2.72;;;1.50;99.90;;;;;;4991896;28;20094;-90
2022/04/10 00:40:03;;;;;;;10.30;2.70;;;1.50;99.90;;;;;;4992672;28;20027;-90
2022/04/10 00:42:32;;;;;;;12.35;2.83;;;1.50;99.90;;;;;;4987147;28;20047;-91
2022/04/10 00:44:58;;;;;;;18.40;3.95;;;1.50;99.90;;;;;;4992497;28;20108;-90
2022/04/10 00:47:24;;;;;;;13.77;3.17;;;1.40;99.90;;;;;;4994049;28;20030;-90
2022/04/10 00:49:49;;;;;;;11.70;2.97;;;1.40;99.90;;;;;;4992365;28;20076;-90
2022/04/10 00:52:15;;;;;;;9.70;3.38;;;1.40;99.90;;;;;;4989917;28;20019;-90
2022/04/10 00:54:41;;;;;;;13.75;3.42;;;1.30;99.90;;;;;;4992478;28;20030;-90
2022/04/10 00:57:07;;;;;;;14.38;3.38;;;1.30;99.90;;;;;;4994755;28;20040;-89
2022/04/10 00:59:33;;;;;;;10.80;3.55;;;1.30;99.90;;;;;;4996326;28;20038;-89
2022/04/10 01:01:58;;;;;;;8.30;3.17;;;1.20;99.90;;;;;;4996637;28;20501;-90
2022/04/10 01:04:25;;;;;;;16.38;3.70;;;1.20;99.90;;;;;;4995684;28;20030;-90
2022/04/10 01:06:51;;;;;;;10.13;3.40;;;1.20;99.90;;;;;;4997081;28;20018;-89
2022/04/10 01:09:20;;;;;;;13.52;3.35;;;1.20;99.90;;;;;;4993885;28;20034;-89
2022/04/10 01:11:46;;;;;;;9.10;3.35;;;1.10;99.90;;;;;;5006625;28;20037;-89
2022/04/10 01:14:13;;;;;;;14.00;3.20;;;1.10;99.90;;;;;;5018257;28;20509;-90
2022/04/10 01:16:38;;;;;;;9.20;3.75;;;1.10;99.90;;;;;;5016225;28;20065;-90
2022/04/10 01:19:05;;;;;;;8.20;3.90;;;1.10;99.90;;;;;;5001313;28;20057;-90
2022/04/10 01:21:39;;;;;;;13.25;3.33;;;1.10;99.90;;;;;;5016764;28;20076;-90
2022/04/10 01:24:06;;;;;;;10.13;3.75;;;1.20;99.90;;;;;;4999944;28;20458;-89
2022/04/10 01:26:31;;;;;;;14.93;4.28;;;1.20;99.90;;;;;;4998405;28;20033;-90
2022/04/10 01:29:03;;;;;;;9.43;2.83;;;1.20;99.90;;;;;;4998896;28;20489;-90
2022/04/10 01:31:32;;;;;;;15.43;3.25;;;1.20;99.90;;;;;;5015405;28;20378;-90
2022/04/10 01:34:00;;;;;;;14.15;2.75;;;1.20;99.90;;;;;;4998261;28;20053;-89
2022/04/10 01:36:28;;;;;;;12.07;3.17;;;1.20;99.90;;;;;;5021230;28;20022;-90
2022/04/10 01:38:55;;;;;;;8.50;3.25;;;1.20;99.90;;;;;;5024711;28;20037;-90
2022/04/10 01:41:25;;;;;;;12.98;3.10;;;1.10;99.90;;;;;;4991022;28;20034;-89
2022/04/10 01:43:53;;;;;;;10.55;2.85;;;1.10;99.90;;;;;;5020829;28;20030;-90
2022/04/10 01:46:19;;;;;;;12.13;2.83;;;1.10;99.90;;;;;;5005264;28;20164;-90
2022/04/10 01:48:45;;;;;;;11.43;2.67;;;1.10;99.90;;;;;;5019028;28;20022;-91
2022/04/10 01:51:11;;;;;;;7.72;2.40;;;1.00;99.90;;;;;;5016073;28;20041;-90
2022/04/10 01:53:37;;;;;;;9.57;2.88;;;1.10;99.90;;;;;;5012710;28;20109;-89
2022/04/10 01:56:04;;;;;;;9.05;3.03;;;1.10;99.90;;;;;;5004630;28;20067;-90
2022/04/10 01:58:31;;;;;;;16.88;2.92;;;1.10;99.90;;;;;;5010772;28;20109;-90
2022/04/10 02:00:57;;;;;;;11.27;2.72;;;1.10;99.90;;;;;;4995237;28;20037;-91
2022/04/10 02:03:23;;;;;;;14.73;3.60;;;1.10;99.90;;;;;;5014713;28;20026;-89
2022/04/10 02:05:48;;;;;;;11.90;2.55;;;1.10;99.90;;;;;;4996742;28;20397;-90
2022/04/10 02:08:14;;;;;;;14.75;2.85;;;1.10;99.90;;;;;;5015321;28;20110;-90
2022/04/10 02:10:40;;;;;;;12.18;2.75;;;1.10;99.90;;;;;;4997943;28;20092;-90
2022/04/10 02:13:09;;;;;;;9.75;3.17;;;1.10;99.90;;;;;;4996385;28;20129;-90
2022/04/10 02:15:36;;;;;;;6.43;2.75;;;1.00;99.90;;;;;;5003939;28;20091;-90
2022/04/10 02:18:02;;;;;;;9.45;2.95;;;1.00;99.90;;;;;;5000950;28;20065;-91
2022/04/10 02:20:28;;;;;;;15.45;2.70;;;1.00;99.90;;;;;;5013581;28;20041;-90
2022/04/10 02:22:53;;;;;;;14.00;2.38;;;0.90;99.90;;;;;;4991572;28;20053;-91
2022/04/10 02:25:19;;;;;;;14.32;2.85;;;0.90;99.90;;;;;;4998192;28;20091;-90
2022/04/10 02:27:45;;;;;;;13.20;2.65;;;0.90;99.90;;;;;;4998563;28;20125;-90
2022/04/10 02:30:12;;;;;;;9.07;2.72;;;0.90;99.90;;;;;;4998011;28;20029;-90
2022/04/10 02:32:39;;;;;;;12.90;3.13;;;0.90;99.90;;;;;;4996394;28;20034;-89
2022/04/10 02:35:05;;;;;;;10.98;3.38;;;0.90;99.90;;;;;;4992214;28;20030;-90
2022/04/10 02:37:30;;;;;;;12.13;2.88;;;0.90;99.90;;;;;;4997179;28;20574;-91
2022/04/10 02:39:56;;;;;;;10.52;2.78;;;1.00;99.90;;;;;;4997482;28;20092;-90
2022/04/10 02:42:21;;;;;;;9.25;2.47;;;1.00;99.90;;;;;;4990144;28;20022;-90
2022/04/10 02:44:47;;;;;;;18.48;2.90;;;1.00;99.90;;;;;;5000797;28;20025;-90
2022/04/10 02:47:12;;;;;;;12.00;2.78;;;1.00;99.90;;;;;;4998135;28;20482;-90
2022/04/10 02:49:38;;;;;;;11.63;2.85;;;1.10;99.90;;;;;;4997466;28;20117;-91
2022/04/10 02:52:04;;;;;;;8.23;2.75;;;1.10;99.90;;;;;;4996414;28;20102;-90
2022/04/10 02:54:29;;;;;;;7.80;2.40;;;1.10;99.90;;;;;;4992281;28;20087;-90
2022/04/10 02:56:55;;;;;;;9.50;2.25;;;1.10;99.90;;;;;;4999948;28;20038;-90
2022/04/10 02:59:20;;;;;;;11.95;2.38;;;1.10;99.90;;;;;;4998918;28;20489;-91
2022/04/10 03:01:50;;;;;;;12.07;3.42;;;1.10;99.90;;;;;;4997100;28;20061;-90
2022/04/10 03:04:18;;;;;;;9.98;2.25;;;1.10;99.90;;;;;;4992639;28;20021;-91
2022/04/10 03:06:44;;;;;;;13.23;3.03;;;1.10;99.90;;;;;;4996995;28;20120;-91
2022/04/10 03:09:09;;;;;;;7.50;2.45;;;1.10;99.90;;;;;;4998152;28;20064;-90
2022/04/10 03:11:35;;;;;;;8.00;2.50;;;1.10;99.90;;;;;;4996639;28;20038;-91
2022/04/10 03:14:00;;;;;;;10.02;2.67;;;1.00;99.90;;;;;;4997051;28;20041;-90
2022/04/10 03:16:26;;;;;;;8.15;2.65;;;1.00;99.90;;;;;;5002825;28;20033;-89
2022/04/10 03:18:51;;;;;;;7.70;2.38;;;1.00;99.90;;;;;;5002739;28;20034;-91
2022/04/10 03:21:18;;;;;;;9.15;2.63;;;0.90;99.90;;;;;;4997923;28;20026;-90
2022/04/10 03:23:44;;;;;;;12.80;2.47;;;1.00;99.90;;;;;;4999144;28;20030;-90
2022/04/10 03:26:09;;;;;;;10.10;2.50;;;0.90;99.90;;;;;;4999875;28;20044;-90
2022/04/10 03:28:35;;;;;;;5.78;2.25;;;0.90;99.90;;;;;;4997259;28;20034;-90
2022/04/10 03:31:00;;;;;;;11.38;2.90;;;0.80;99.90;;;;;;4997114;28;20125;-90
2022/04/10 03:33:26;;;;;;;12.73;3.70;;;0.80;99.90;;;;;;4996463;28;20493;-90
2022/04/10 03:35:53;;;;;;;14.02;3.17;;;0.80;99.90;;;;;;5008381;28;20077;-90
2022/04/10 03:38:18;;;;;;;11.55;2.97;;;0.70;99.90;;;;;;4998328;28;20087;-90
2022/04/10 03:40:44;;;;;;;14.63;3.58;;;0.70;99.90;;;;;;4993688;28;20023;-90
2022/04/10 03:43:11;;;;;;;11.27;3.72;;;0.80;99.90;;;;;;5003827;28;20036;-90
2022/04/10 03:45:41;;;;;;;11.88;3.08;;;0.80;99.90;;;;;;4998177;28;20048;-90
2022/04/10 03:48:07;;;;;;;9.23;3.40;;;0.80;99.90;;;;;;4996582;28;20037;-90
2022/04/10 03:50:34;;;;;;;9.93;3.35;;;0.80;99.90;;;;;;4996654;28;20026;-90
2022/04/10 03:53:04;;;;;;;11.40;3.28;;;0.90;99.90;;;;;;4995687;28;20034;-90
2022/04/10 03:55:30;;;;;;;13.55;3.78;;;0.90;99.90;;;;;;4992042;28;20018;-89
2022/04/10 03:57:56;;;;;;;9.52;3.08;;;0.80;99.90;;;;;;4995892;28;20033;-90
2022/04/10 04:00:21;;;;;;;10.73;2.50;;;0.80;99.90;;;;;;4995243;28;20033;-90
2022/04/10 04:02:47;;;;;;;9.48;3.15;;;0.80;99.90;;;;;;4994826;28;20037;-90
2022/04/10 04:05:13;;;;;;;11.30;3.20;;;0.80;99.90;;;;;;4993155;28;20113;-90
2022/04/10 04:07:39;;;;;;;10.23;3.08;;;0.80;99.90;;;;;;4997249;28;20363;-91
2022/04/10 04:10:06;;;;;;;12.05;2.97;;;0.80;99.90;;;;;;4996790;28;20450;-91
2022/04/10 04:12:34;;;;;;;11.07;2.70;;;0.70;99.90;;;;;;4992071;28;20057;-91
2022/04/10 04:14:59;;;;;;;11.52;3.17;;;0.70;99.90;;;;;;4995042;28;20064;-89
2022/04/10 04:17:25;;;;;;;8.48;2.28;;;0.70;99.90;;;;;;4989520;28;20056;-90
2022/04/10 04:19:51;;;;;;;18.50;4.03;;;0.70;99.90;;;;;;5009628;28;20033;-90
2022/04/10 04:22:17;;;;;;;8.23;2.55;;;0.60;99.90;;;;;;4994947;28;20029;-90
2022/04/10 04:24:43;;;;;;;12.10;2.80;;;0.60;99.90;;;;;;5007277;28;20077;-91
2022/04/10 04:27:09;;;;;;;9.57;3.63;;;0.60;99.90;;;;;;5010257;28;20120;-91
2022/04/10 04:29:35;;;;;;;13.20;2.97;;;0.50;99.90;;;;;;4994976;28;20061;-90
2022/04/10 04:32:01;;;;;;;12.02;3.50;;;0.50;99.90;;;;;;5011749;28;20080;-91
2022/04/10 04:34:26;;;;;;;7.97;3.03;;;0.50;99.90;;;;;;4992593;28;20070;-91
2022/04/10 04:36:52;;;;;;;11.75;3.03;;;0.50;99.90;;;;;;5003315;28;20029;-91
2022/04/10 04:39:18;;;;;;;13.32;3.08;;;0.50;99.90;;;;;;5007865;28;20093;-91
2022/04/10 04:41:44;;;;;;;7.43;3.10;;;0.50;99.90;;;;;;5012125;28;20108;-90
2022/04/10 04:44:09;;;;;;;17.38;4.43;;;0.50;99.90;;;;;;4993246;28;20169;-89
2022/04/10 04:46:35;;;;;;;12.00;3.15;;;0.50;99.90;;;;;;4995720;28;20116;-91
2022/04/10 04:49:01;;;;;;;14.05;3.53;;;0.50;99.90;;;;;;4988655;28;20490;-91
2022/04/10 04:51:27;;;;;;;10.95;4.07;;;0.50;99.90;;;;;;5008513;28;20022;-91
2022/04/10 04:53:53;;;;;;;14.32;3.53;;;0.40;99.90;;;;;;4993730;28;20037;-91
2022/04/10 04:56:19;;;;;;;12.27;3.00;;;0.40;99.90;;;;;;4993110;28;20075;-90
2022/04/10 04:58:44;;;;;;;11.45;3.30;;;0.40;99.90;;;;;;5002132;28;20110;-91
2022/04/10 05:01:10;;;;;;;13.68;4.03;;;0.40;99.90;;;;;;4994007;28;20040;-90
2022/04/10 05:03:36;;;;;;;12.82;3.53;;;0.40;99.90;;;;;;5010588;28;20029;-90
2022/04/10 05:06:01;;;;;;;13.38;4.03;;;0.40;99.90;;;;;;4993548;28;20022;-90
2022/04/10 05:08:27;;;;;;;10.52;3.75;;;0.40;99.90;;;;;;4989867;28;20397;-89
2022/04/10 05:10:52;;;;;;;11.35;3.17;;;0.40;99.90;;;;;;4991594;28;20531;-90
2022/04/10 05:13:18;;;;;;;13.75;3.75;;;0.40;99.90;;;;;;4993327;28;20129;-90
2022/04/10 05:15:43;;;;;;;15.13;4.22;;;0.40;99.90;;;;;;5012150;28;20401;-91
2022/04/10 05:18:09;;;;;;;12.05;4.03;;;0.50;99.90;;;;;;4995419;28;20030;-90
2022/04/10 05:20:35;;;;;;;11.48;3.60;;;0.40;99.90;;;;;;4993359;28;20113;-90
2022/04/10 05:23:00;;;;;;;9.82;3.88;;;0.40;99.90;;;;;;5003543;28;20030;-90
2022/04/10 05:25:27;;;;;;;12.27;3.95;;;0.50;99.90;;;;;;5000740;28;20030;-91
2022/04/10 05:27:53;;;;;;;13.27;4.63;;;0.50;99.90;;;;;;5007824;28;20022;-91
2022/04/10 05:30:18;;;;;;;12.00;4.28;;;0.60;99.90;;;;;;4999118;28;20029;-91
2022/04/10 05:32:44;;;;;;;9.50;3.83;;;0.60;99.90;;;;;;5007517;28;20394;-91
2022/04/10 05:35:12;;;;;;;10.05;4.10;;;0.60;99.90;;;;;;5010888;28;20521;-92
2022/04/10 05:37:38;;;;;;;17.92;3.67;;;0.70;99.90;;;;;;4991433;28;20181;-91
2022/04/10 05:40:04;;;;;;;13.13;3.90;;;0.80;99.90;;;;;;5008707;28;20064;-93
2022/04/10 05:42:29;;;;;;;9.88;3.35;;;0.90;99.90;;;;;;4994106;28;20010;-91
2022/04/10 05:45:02;;;;;;;11.10;3.55;;;0.90;99.90;;;;;;4997731;28;20021;-91
2022/04/10 05:47:28;;;;;;;12.05;3.45;;;1.00;99.90;;;;;;4999711;28;20080;-91
2022/04/10 05:49:53;;;;;;;13.02;4.68;;;1.10;99.90;;;;;;5000015;28;20504;-91
2022/04/10 05:52:19;;;;;;;10.25;3.50;;;1.20;99.90;;;;;;4999468;28;20045;-91
2022/04/10 05:54:44;;;;;;;13.43;4.15;;;1.20;99.90;;;;;;5002557;28;20022;-90
2022/04/10 05:57:10;;;;;;;16.00;3.67;;;1.30;99.90;;;;;;4997122;28;20034;-91
2022/04/10 05:59:36;;;;;;;10.23;3.42;;;1.40;99.90;;;;;;5000458;28;20116;-91
2022/04/10 06:02:01;;;;;;;8.98;3.58;;;1.50;99.90;;;;;;4996069;28;20026;-91
2022/04/10 06:04:27;;;;;;;11.50;3.40;;;1.60;99.90;;;;;;4999169;28;20034;-91
2022/04/10 06:06:52;;;;;;;15.40;3.72;;;1.70;99.90;;;;;;4999046;28;20090;-92
2022/04/10 06:09:18;;;;;;;15.80;4.70;;;1.80;99.90;;;;;;4996577;28;20030;-92
2022/04/10 06:11:43;;;;;;;16.23;4.30;;;1.80;99.90;;;;;;4998633;28;20116;-91
2022/04/10 06:14:09;;;;;;;8.32;3.47;;;1.90;99.90;;;;;;5016425;28;20034;-91
2022/04/10 06:16:34;;;;;;;11.68;4.30;;;2.00;99.90;;;;;;4995506;28;20026;-90
2022/04/10 06:19:00;;;;;;;10.50;3.50;;;2.10;99.90;;;;;;5011545;28;20034;-90
2022/04/10 06:21:26;;;;;;;8.13;3.75;;;2.20;99.90;;;;;;5001258;28;20022;-91
2022/04/10 06:23:52;;;;;;;11.32;4.13;;;2.30;99.90;;;;;;4996531;28;20022;-91
2022/04/10 06:26:17;;;;;;;10.63;4.63;;;2.50;99.90;;;;;;4994271;28;20081;-91
2022/04/10 06:28:43;;;;;;;11.35;3.17;;;2.50;99.90;;;;;;4996339;28;20022;-91
2022/04/10 06:31:08;;;;;;;13.95;4.07;;;2.70;99.90;;;;;;4995258;28;20052;-89
2022/04/10 06:33:34;;;;;;;13.13;4.32;;;2.80;99.90;;;;;;4995310;28;20155;-90
2022/04/10 06:35:59;;;;;;;10.70;3.60;;;2.90;99.90;;;;;;4998068;28;20030;-92
2022/04/10 06:38:25;;;;;;;11.18;4.10;;;3.00;99.90;;;;;;4988488;28;20022;-91
2022/04/10 06:40:51;;;;;;;17.65;5.63;;;3.10;99.90;;;;;;4991759;28;20111;-91
2022/04/10 06:43:17;;;;;;;10.00;3.85;;;3.20;99.90;;;;;;4998168;28;20498;-92
2022/04/10 06:45:43;;;;;;;12.05;4.05;;;3.30;99.90;;;;;;4997789;28;20101;-92
2022/04/10 06:48:09;;;;;;;12.90;4.35;;;3.50;99.90;;;;;;4999294;28;20050;-92
2022/04/10 06:50:34;;;;;;;10.07;3.08;;;3.60;99.90;;;;;;4998370;28;20113;-92
2022/04/10 06:53:00;;;;;;;10.48;3.63;;;3.70;99.90;;;;;;5000334;28;20030;-91
2022/04/10 06:55:25;;;;;;;10.75;3.85;;;3.80;99.90;;;;;;5000729;28;20371;-92
2022/04/10 06:57:51;;;;;;;8.88;3.38;;;3.90;99.90;;;;;;4997696;28;20623;-91
2022/04/10 07:00:17;;;;;;;8.85;2.90;;;4.10;99.90;;;;;;4999169;28;20084;-92
2022/04/10 07:02:42;;;;;;;8.00;2.85;;;4.30;99.90;;;;;;4995254;28;20034;-92
2022/04/10 07:05:08;;;;;;;8.65;2.55;;;4.40;99.90;;;;;;4997774;28;20034;-92
2022/04/10 07:07:34;;;;;;;9.00;3.45;;;4.60;99.90;;;;;;4997736;28;20042;-90
2022/04/10 07:09:59;;;;;;;10.05;2.38;;;4.70;99.90;;;;;;4996691;28;20064;-91
2022/04/10 07:12:26;;;;;;;8.45;3.35;;;4.90;99.90;;;;;;4996980;28;20100;-90
2022/04/10 07:14:51;;;;;;;8.07;2.70;;;5.20;99.90;;;;;;4996036;28;20062;-92
2022/04/10 07:17:17;;;;;;;9.23;1.98;;;5.40;99.90;;;;;;4996623;28;20025;-91
2022/04/10 07:19:45;;;;;;;11.00;2.20;;;5.60;99.90;;;;;;4997526;28;20029;-91
2022/04/10 07:24:55;;;;;;;6.97;1.17;;;6.00;99.90;;;;;;5013719;28;20102;-90
2022/04/10 07:27:21;;;;;;;5.00;0.98;;;5.90;99.90;;;;;;4996400;28;20014;-91
2022/04/10 07:29:46;;;;;;;4.13;0.80;;;5.90;99.90;;;;;;4994249;28;20034;-93
2022/04/10 07:32:12;;;;;;;6.72;0.88;;;5.80;99.90;;;;;;4998280;28;20092;-90
2022/04/10 07:34:38;;;;;;;6.22;1.08;;;5.70;99.90;;;;;;4996635;28;20022;-92
2022/04/10 07:37:03;;;;;;;9.45;0.80;;;5.70;99.90;;;;;;4992370;28;20044;-92
2022/04/10 07:39:29;;;;;;;7.03;0.85;;;5.70;99.90;;;;;;4997578;28;20056;-92
2022/04/10 07:41:54;;;;;;;6.32;0.82;;;5.60;99.90;;;;;;4997037;28;20041;-91
2022/04/10 07:44:20;;;;;;;8.18;0.82;;;5.70;99.90;;;;;;4996755;28;20029;-91
2022/04/10 07:49:30;;;;;;;5.63;1.20;;;5.90;99.90;;;;;;5014959;28;20136;-91
2022/04/10 07:51:56;;;;;;;4.53;0.80;;;6.00;99.90;;;;;;4996374;28;20124;-91
2022/04/10 07:54:21;;;;;;;5.20;0.77;;;6.00;99.90;;;;;;4996835;28;20551;-90
2022/04/10 07:56:47;;;;;;;4.18;0.57;;;6.10;99.90;;;;;;4990872;28;20014;-91
2022/04/10 07:59:13;;;;;;;3.53;0.57;;;6.20;99.90;;;;;;5001836;28;20034;-91
2022/04/10 08:01:38;;;;;;;3.78;0.60;;;6.20;99.90;;;;;;4997746;28;20470;-91
2022/04/10 08:04:04;;;;;;;7.40;0.70;;;6.20;99.90;;;;;;4998976;28;20061;-92
2022/04/10 08:06:30;;;;;;;5.90;1.50;;;6.20;99.90;;;;;;4996564;28;20037;-90
2022/04/10 08:08:55;;;;;;;3.97;0.73;;;6.30;99.90;;;;;;4998086;28;20034;-93
2022/04/10 08:11:21;;;;;;;6.00;0.77;;;6.30;99.90;;;;;;4994428;28;20062;-92
2022/04/10 08:13:46;;;;;;;5.10;0.60;;;6.40;99.90;;;;;;4993076;28;20038;-91
2022/04/10 08:16:14;;;;;;;5.68;0.40;;;6.50;99.90;;;;;;4991903;28;20035;-92
2022/04/10 08:18:40;;;;;;;4.82;0.70;;;6.50;99.90;;;;;;4994998;28;20113;-91
2022/04/10 08:21:06;;;;;;;3.55;0.50;;;6.50;99.90;;;;;;4995473;28;20077;-91
2022/04/10 08:23:32;;;;;;;6.68;0.60;;;6.50;99.90;;;;;;4993255;28;20037;-90
2022/04/10 08:25:57;;;;;;;3.03;0.50;;;6.40;99.90;;;;;;4988191;28;20030;-90
2022/04/10 08:28:23;;;;;;;3.60;0.40;;;6.40;99.90;;;;;;4992434;28;20065;-90
2022/04/10 08:30:49;;;;;;;3.35;0.50;;;6.60;99.90;;;;;;4992862;28;20073;-90
2022/04/10 08:33:14;;;;;;;3.30;0.60;;;6.70;99.90;;;;;;4990654;28;20050;-91
2022/04/10 08:35:40;;;;;;;2.47;0.50;;;6.80;99.90;;;;;;4987302;28;20251;-89
2022/04/10 08:38:05;;;;;;;6.55;0.50;;;6.80;99.90;;;;;;4988729;28;20034;-90
2022/04/10 08:40:32;;;;;;;4.93;0.50;;;6.90;99.90;;;;;;4985096;28;20019;-90
2022/04/10 08:43:02;;;;;;;6.10;0.60;;;7.00;99.90;;;;;;4992449;28;20073;-89
2022/04/10 08:45:28;;;;;;;2.90;0.60;;;7.10;99.90;;;;;;4991663;28;20080;-91
2022/04/10 08:47:55;;;;;;;4.60;0.85;;;7.20;99.90;;;;;;4993817;28;20022;-93
2022/04/10 08:50:23;;;;;;;4.13;0.47;;;7.30;99.90;;;;;;5021344;28;20034;-93
2022/04/10 08:52:52;;;;;;;5.97;0.50;;;7.40;99.90;;;;;;4990876;28;20045;-92
2022/04/10 08:55:18;;;;;;;4.20;0.40;;;7.50;99.90;;;;;;4985948;28;20027;-91
2022/04/10 08:57:44;;;;;;;3.45;0.40;;;7.60;99.90;;;;;;4990023;28;20113;-90
2022/04/10 09:00:10;;;;;;;5.05;0.45;;;7.70;99.90;;;;;;4991360;28;20054;-91
2022/04/10 09:02:47;;;;;;;3.67;0.40;;;7.80;99.90;;;;;;4986448;28;20536;-90
2022/04/10 09:05:17;;;;;;;4.25;0.30;;;7.90;99.90;;;;;;4993597;28;20084;-91
2022/04/10 09:08:17;;;;;;;5.50;0.40;;;8.00;99.90;;;;;;4988408;28;20027;-90
2022/04/10 09:10:52;;;;;;;3.78;0.40;;;8.10;99.90;;;;;;4988361;28;20047;-90
2022/04/10 09:13:25;;;;;;;7.00;0.68;;;8.10;99.90;;;;;;4999363;28;20038;-91
2022/04/10 09:15:51;;;;;;;4.03;0.57;;;8.00;99.90;;;;;;5005509;28;20034;-91
2022/04/10 09:18:17;;;;;;;6.00;0.43;;;8.10;99.90;;;;;;4990852;28;20026;-90
2022/04/10 09:20:42;;;;;;;7.50;0.50;;;8.20;99.90;;;;;;4991166;28;20034;-91
2022/04/10 09:23:09;;;;;;;4.97;0.50;;;8.30;99.90;;;;;;4991375;28;20031;-90
2022/04/10 09:25:42;;;;;;;7.55;0.40;;;8.50;99.90;;;;;;4988845;28;20038;-91
2022/04/10 09:28:08;;;;;;;5.55;0.50;;;8.40;99.90;;;;;;4995548;28;20516;-91
2022/04/10 09:30:34;;;;;;;4.53;0.35;;;8.40;99.90;;;;;;4995639;28;20034;-91
2022/04/10 09:33:00;;;;;;;6.50;0.70;;;8.50;99.90;;;;;;4994375;28;20038;-90
2022/04/10 09:35:26;;;;;;;2.35;0.35;;;8.60;99.90;;;;;;4995640;28;20025;-91
2022/04/10 09:37:54;;;;;;;3.42;0.47;;;8.60;99.90;;;;;;4995555;28;20390;-89
2022/04/10 09:40:25;;;;;;;3.47;0.43;;;8.60;99.90;;;;;;5005318;28;20027;-90
2022/04/10 09:43:05;;;;;;;3.88;0.30;;;8.70;99.90;;;;;;4989863;28;20031;-91
2022/04/10 09:45:38;;;;;;;5.35;0.70;;;9.00;99.90;;;;;;4988603;28;20037;-90
2022/04/10 09:48:24;;;;;;;2.65;0.30;;;9.10;99.90;;;;;;4980424;28;20109;-88
2022/04/10 09:50:52;;;;;;;5.07;0.47;;;9.30;99.90;;;;;;4989451;28;20031;-90
2022/04/10 09:53:21;;;;;;;4.95;0.63;;;9.30;99.90;;;;;;4990201;28;20034;-90
2022/04/10 09:55:53;;;;;;;4.45;0.50;;;9.20;99.50;;;;;;4992413;28;20030;-89
2022/04/10 09:58:20;;;;;;;3.63;0.40;;;9.20;99.50;;;;;;4993833;28;20037;-89
2022/04/10 10:00:46;;;;;;;5.28;0.50;;;9.20;98.80;;;;;;4992448;28;20038;-90
2022/04/10 10:03:13;;;;;;;3.92;0.45;;;9.20;98.70;;;;;;4989364;28;20478;-90
2022/04/10 10:05:39;;;;;;;2.40;0.40;;;9.30;99.20;;;;;;4986973;28;20022;-90
2022/04/10 10:08:06;;;;;;;5.20;0.63;;;9.50;98.80;;;;;;4990032;28;20732;-91
2022/04/10 10:10:34;;;;;;;6.18;0.50;;;9.70;98.90;;;;;;4992733;28;20046;-91
2022/04/10 10:13:05;;;;;;;8.30;1.42;;;9.80;98.30;;;;;;4994059;28;20038;-90
2022/04/10 10:15:35;;;;;;;5.95;0.38;;;9.70;97.90;;;;;;4992767;28;20050;-90
2022/04/10 10:18:02;;;;;;;2.30;0.30;;;9.50;97.40;;;;;;4985752;28;20150;-91
2022/04/10 10:20:28;;;;;;;2.95;0.30;;;9.30;97.80;;;;;;4989917;28;20450;-91
2022/04/10 10:22:54;;;;;;;4.15;0.40;;;9.40;98.40;;;;;;4994516;28;20030;-91
2022/04/10 10:25:29;;;;;;;4.00;0.30;;;9.60;98.00;;;;;;4994539;28;20053;-91
2022/04/10 10:28:00;;;;;;;6.05;0.50;;;9.70;97.20;;;;;;4994988;28;20110;-92
2022/04/10 10:30:53;;;;;;;2.05;0.40;;;9.50;96.00;;;;;;4993334;28;20675;-91
2022/04/10 10:33:21;;;;;;;2.17;0.30;;;9.40;96.90;;;;;;4985562;28;20038;-90
2022/04/10 10:36:09;;;;;;;3.88;0.30;;;9.60;97.10;;;;;;4994587;28;20077;-91
2022/04/10 10:38:35;;;;;;;1.73;0.30;;;9.80;96.70;;;;;;4993050;28;20486;-90
2022/04/10 10:41:31;;;;;;;3.45;0.40;;;10.00;95.30;;;;;;4995905;28;20073;-90
2022/04/10 10:43:57;;;;;;;5.18;0.30;;;10.20;94.30;;;;;;4989028;28;20149;-90
2022/04/10 10:46:32;;;;;;;3.67;0.40;;;10.40;94.70;;;;;;4994019;28;20018;-91
2022/04/10 10:49:19;;;;;;;4.90;0.45;;;10.60;94.20;;;;;;4992298;28;20030;-90
2022/04/10 10:51:52;;;;;;;6.68;0.47;;;10.70;93.10;;;;;;4995475;28;20118;-90
2022/04/10 10:54:30;;;;;;;4.78;0.50;;;10.70;92.90;;;;;;4991456;28;20030;-91
2022/04/10 10:56:56;;;;;;;5.70;0.40;;;10.70;93.00;;;;;;4997359;28;20041;-91
2022/04/10 10:59:34;;;;;;;2.50;0.40;;;10.70;92.60;;;;;;4997314;28;20034;-90
2022/04/10 11:02:10;;;;;;;1.90;0.30;;;10.80;92.00;;;;;;4994357;28;20482;-90
2022/04/10 11:04:40;;;;;;;3.50;0.40;;;10.80;92.20;;;;;;4998587;28;20018;-89
2022/04/10 11:07:13;;;;;;;3.05;0.30;;;10.90;91.70;;;;;;4996684;28;20030;-89
2022/04/10 11:09:58;;;;;;;2.03;0.32;;;10.90;90.30;;;;;;4995545;28;20109;-90
2022/04/10 11:12:49;;;;;;;2.35;0.30;;;10.80;90.50;;;;;;4994831;28;20021;-90
2022/04/10 11:15:18;;;;;;;5.75;0.40;;;10.80;88.60;;;;;;5013314;28;20036;-89
2022/04/10 11:17:45;;;;;;;2.08;0.40;;;10.90;90.00;;;;;;5006588;28;20022;-89
2022/04/10 11:20:12;;;;;;;3.90;0.40;;;11.10;90.00;;;;;;5001542;28;20044;-90
2022/04/10 11:22:59;;;;;;;3.25;0.28;;;11.20;89.00;;;;;;4997692;28;20470;-90
2022/04/10 11:25:28;;;;;;;5.88;0.50;;;11.30;88.80;;;;;;5014597;28;20030;-89
2022/04/10 11:27:55;;;;;;;5.15;0.60;;;11.20;88.60;;;;;;5008545;28;20025;-89
2022/04/10 11:30:29;;;;;;;3.92;0.52;;;11.10;89.40;;;;;;5005649;28;20519;-90
2022/04/10 11:33:03;;;;;;;3.45;0.40;;;10.90;89.60;;;;;;5017740;28;20041;-91
2022/04/10 11:35:30;;;;;;;3.35;0.55;;;10.70;89.30;;;;;;5021914;28;20152;-91
2022/04/10 11:37:59;;;;;;;5.45;0.68;;;10.40;89.00;;;;;;4994299;28;20038;-91
2022/04/10 11:40:27;;;;;;;1.80;0.40;;;10.40;90.10;;;;;;5001182;28;20022;-90
2022/04/10 11:42:54;;;;;;;2.40;0.30;;;10.70;90.30;;;;;;5006888;28;20029;-90
2022/04/10 11:45:22;;;;;;;2.55;0.40;;;11.00;90.00;;;;;;5007006;28;20033;-91
2022/04/10 11:47:48;;;;;;;2.88;0.32;;;11.30;87.90;;;;;;5002901;28;20108;-91
2022/04/10 11:50:14;;;;;;;2.47;0.30;;;11.40;86.90;;;;;;5003544;28;20604;-91
2022/04/10 11:52:41;;;;;;;2.53;0.38;;;11.60;85.50;;;;;;4991884;28;20026;-89
2022/04/10 11:55:08;;;;;;;4.20;0.40;;;11.70;85.00;;;;;;4999203;28;20477;-89
2022/04/10 11:57:38;;;;;;;4.55;0.40;;;11.50;83.70;;;;;;5011908;28;20086;-90
2022/04/10 12:00:09;;;;;;;3.83;0.30;;;11.10;84.50;;;;;;4996155;28;20507;-90
2022/04/10 12:02:36;;;;;;;6.07;0.85;;;11.00;85.10;;;;;;4996386;28;20029;-90
2022/04/10 12:05:03;;;;;;;3.17;0.47;;;11.00;85.00;;;;;;4992152;28;20034;-89
2022/04/10 12:07:29;;;;;;;3.10;0.50;;;10.90;83.30;;;;;;4996503;28;20029;-90
2022/04/10 12:09:57;;;;;;;4.15;0.28;;;11.00;83.40;;;;;;5004433;28;20038;-90
2022/04/10 12:12:37;;;;;;;4.40;0.35;;;11.20;82.50;;;;;;5001016;28;20022;-90
2022/04/10 12:15:14;;;;;;;6.00;1.05;;;11.30;81.20;;;;;;4980511;28;20037;-90
2022/04/10 12:17:39;;;;;;;3.35;0.40;;;11.30;81.10;;;;;;4996303;28;20018;-91
2022/04/10 12:20:05;;;;;;;3.78;0.30;;;11.40;80.10;;;;;;4996060;28;20027;-90
2022/04/10 12:22:31;;;;;;;2.55;0.30;;;11.40;80.90;;;;;;4995358;28;20034;-91
2022/04/10 12:24:58;;;;;;;4.45;0.45;;;11.50;80.20;;;;;;4990027;28;20052;-91
2022/04/10 12:27:24;;;;;;;3.53;0.45;;;11.60;79.50;;;;;;5014197;28;20037;-91
2022/04/10 12:29:50;;;;;;;6.93;0.50;;;11.50;77.80;;;;;;5003337;28;20363;-90
2022/04/10 12:32:16;;;;;;;4.03;0.30;;;11.60;77.50;;;;;;5003743;28;20059;-91
2022/04/10 12:34:42;;;;;;;5.07;0.40;;;11.50;77.90;;;;;;5015124;28;20021;-91
2022/04/10 12:37:11;;;;;;;3.28;0.40;;;11.60;77.90;;;;;;4997290;28;20585;-90
2022/04/10 12:39:37;;;;;;;4.03;0.40;;;11.70;79.30;;;;;;4997126;28;20120;-91
2022/04/10 12:42:09;;;;;;;1.95;0.38;;;11.90;78.40;;;;;;4997118;28;20030;-90
2022/04/10 12:44:38;;;;;;;2.00;0.28;;;12.20;77.80;;;;;;4991303;28;20045;-90
2022/04/10 12:47:09;;;;;;;1.67;0.20;;;12.30;75.10;;;;;;4999387;28;20046;-90
2022/04/10 12:49:41;;;;;;;1.85;0.20;;;12.30;74.20;;;;;;4997183;28;20441;-91
2022/04/10 12:52:09;;;;;;;2.70;0.22;;;12.50;74.30;;;;;;4996224;28;20026;-90
2022/04/10 12:54:40;;;;;;;4.53;0.20;;;12.50;72.40;;;;;;5003593;28;20042;-89
2022/04/10 12:57:08;;;;;;;1.73;0.35;;;12.50;70.90;;;;;;4997825;28;20030;-90